sensor_id;sensor_type;location;lat;lon;timestamp;pressure;altitude;pressure_sealevel;temperature;humidity
36248;BME280;22287;50.824;5.644;2023-01-30T00:01:24;101308.50;;;3.37;82.24
36248;BME280;22287;50.824;5.644;2023-01-30T00:03:51;101300.50;;;3.37;82.30
36248;BME280;22287;50.824;5.644;2023-01-30T00:06:18;101292.06;;;3.46;80.83
36248;BME280;22287;50.824;5.644;2023-01-30T00:08:45;101283.63;;;3.55;81.14
36248;BME280;22287;50.824;5.644;2023-01-30T00:11:14;101305.31;;;3.29;82.31
36248;BME280;22287;50.824;5.644;2023-01-30T00:13:42;101285.94;;;3.44;81.57
36248;BME280;22287;50.824;5.644;2023-01-30T00:16:09;101270.88;;;3.79;80.66
36248;BME280;22287;50.824;5.644;2023-01-30T00:18:38;101275.47;;;3.59;81.32
36248;BME280;22287;50.824;5.644;2023-01-30T00:21:06;101270.03;;;3.41;81.32
36248;BME280;22287;50.824;5.644;2023-01-30T00:23:35;101281.78;;;3.37;82.22
36248;BME280;22287;50.824;5.644;2023-01-30T00:26:04;101285.44;;;3.36;82.19
36248;BME280;22287;50.824;5.644;2023-01-30T00:28:31;101276.53;;;3.17;83.30
36248;BME280;22287;50.824;5.644;2023-01-30T00:30:58;101272.47;;;3.46;82.38
36248;BME280;22287;50.824;5.644;2023-01-30T00:33:29;101271.06;;;3.39;82.57
36248;BME280;22287;50.824;5.644;2023-01-30T00:35:57;101256.97;;;3.35;82.86
36248;BME280;22287;50.824;5.644;2023-01-30T00:38:25;101248.53;;;3.26;84.04
36248;BME280;22287;50.824;5.644;2023-01-30T00:40:52;101246.13;;;3.38;83.42
36248;BME280;22287;50.824;5.644;2023-01-30T00:43:19;101265.91;;;3.34;83.42
36248;BME280;22287;50.824;5.644;2023-01-30T00:46:13;101245.91;;;3.24;83.76
36248;BME280;22287;50.824;5.644;2023-01-30T00:49:16;101247.66;;;3.25;84.38
36248;BME280;22287;50.824;5.644;2023-01-30T00:51:43;101253.41;;;3.35;84.41
36248;BME280;22287;50.824;5.644;2023-01-30T00:54:11;101231.69;;;3.61;82.56
36248;BME280;22287;50.824;5.644;2023-01-30T00:56:38;101217.47;;;3.42;83.53
36248;BME280;22287;50.824;5.644;2023-01-30T00:59:05;101214.31;;;3.34;83.92
36248;BME280;22287;50.824;5.644;2023-01-30T01:01:32;101201.75;;;3.36;83.55
36248;BME280;22287;50.824;5.644;2023-01-30T01:03:59;101218.72;;;3.71;83.41
36248;BME280;22287;50.824;5.644;2023-01-30T01:06:26;101238.25;;;3.35;83.90
36248;BME280;22287;50.824;5.644;2023-01-30T01:08:52;101219.06;;;3.27;84.84
36248;BME280;22287;50.824;5.644;2023-01-30T01:11:19;101231.00;;;3.20;84.92
36248;BME280;22287;50.824;5.644;2023-01-30T01:13:54;101232.03;;;3.53;84.28
36248;BME280;22287;50.824;5.644;2023-01-30T01:16:22;101221.72;;;4.00;82.03
36248;BME280;22287;50.824;5.644;2023-01-30T01:18:50;101227.31;;;3.77;82.50
36248;BME280;22287;50.824;5.644;2023-01-30T01:21:17;101223.38;;;3.48;82.87
36248;BME280;22287;50.824;5.644;2023-01-30T01:23:54;101219.84;;;3.48;83.43
36248;BME280;22287;50.824;5.644;2023-01-30T01:26:21;101219.00;;;3.47;84.20
36248;BME280;22287;50.824;5.644;2023-01-30T01:28:52;101220.78;;;3.47;83.84
36248;BME280;22287;50.824;5.644;2023-01-30T01:31:19;101224.09;;;3.52;83.62
36248;BME280;22287;50.824;5.644;2023-01-30T01:33:46;101227.72;;;3.70;82.97
36248;BME280;22287;50.824;5.644;2023-01-30T01:36:13;101234.72;;;3.72;83.06
36248;BME280;22287;50.824;5.644;2023-01-30T01:39:00;101226.13;;;3.47;83.95
36248;BME280;22287;50.824;5.644;2023-01-30T01:41:27;101236.84;;;3.28;84.98
36248;BME280;22287;50.824;5.644;2023-01-30T01:46:33;101218.63;;;3.91;82.91
36248;BME280;22287;50.824;5.644;2023-01-30T01:49:06;101220.13;;;3.61;84.13
36248;BME280;22287;50.824;5.644;2023-01-30T01:51:49;101221.41;;;3.71;83.53
36248;BME280;22287;50.824;5.644;2023-01-30T01:54:47;101217.94;;;3.69;84.03
36248;BME280;22287;50.824;5.644;2023-01-30T01:57:36;101215.03;;;3.73;84.01
36248;BME280;22287;50.824;5.644;2023-01-30T02:02:42;101213.66;;;3.65;84.35
36248;BME280;22287;50.824;5.644;2023-01-30T02:05:11;101213.84;;;3.62;85.35
36248;BME280;22287;50.824;5.644;2023-01-30T02:08:04;101202.97;;;3.47;85.82
36248;BME280;22287;50.824;5.644;2023-01-30T02:10:41;101205.78;;;3.44;85.75
36248;BME280;22287;50.824;5.644;2023-01-30T02:13:11;101200.88;;;3.71;84.83
36248;BME280;22287;50.824;5.644;2023-01-30T02:15:39;101197.19;;;3.74;84.25
36248;BME280;22287;50.824;5.644;2023-01-30T02:18:06;101191.16;;;3.51;85.56
36248;BME280;22287;50.824;5.644;2023-01-30T02:31:21;101166.38;;;3.67;85.52
36248;BME280;22287;50.824;5.644;2023-01-30T02:33:59;101165.66;;;3.63;85.91
36248;BME280;22287;50.824;5.644;2023-01-30T02:39:22;101167.50;;;3.97;85.26
36248;BME280;22287;50.824;5.644;2023-01-30T02:42:07;101163.41;;;3.73;86.16
36248;BME280;22287;50.824;5.644;2023-01-30T02:47:35;101147.13;;;3.77;86.05
36248;BME280;22287;50.824;5.644;2023-01-30T02:50:27;101135.41;;;3.97;85.56
36248;BME280;22287;50.824;5.644;2023-01-30T02:52:56;101121.63;;;3.70;86.69
36248;BME280;22287;50.824;5.644;2023-01-30T02:55:26;101118.81;;;4.25;85.56
36248;BME280;22287;50.824;5.644;2023-01-30T02:57:55;101125.34;;;3.85;85.98
36248;BME280;22287;50.824;5.644;2023-01-30T03:11:57;101093.88;;;3.90;86.07
36248;BME280;22287;50.824;5.644;2023-01-30T03:14:45;101107.97;;;3.93;86.79
36248;BME280;22287;50.824;5.644;2023-01-30T03:17:28;101110.25;;;3.84;87.02
36248;BME280;22287;50.824;5.644;2023-01-30T03:19:59;101097.59;;;3.87;87.23
36248;BME280;22287;50.824;5.644;2023-01-30T03:22:39;101088.69;;;4.04;86.29
36248;BME280;22287;50.824;5.644;2023-01-30T03:25:07;101076.00;;;4.25;85.27
36248;BME280;22287;50.824;5.644;2023-01-30T03:27:34;101079.47;;;4.42;84.94
36248;BME280;22287;50.824;5.644;2023-01-30T03:30:02;101082.59;;;4.35;84.82
36248;BME280;22287;50.824;5.644;2023-01-30T03:32:29;101086.97;;;4.03;85.35
36248;BME280;22287;50.824;5.644;2023-01-30T03:34:56;101088.81;;;4.18;85.60
36248;BME280;22287;50.824;5.644;2023-01-30T03:37:23;101086.41;;;4.13;85.71
36248;BME280;22287;50.824;5.644;2023-01-30T03:39:50;101072.25;;;4.44;84.59
36248;BME280;22287;50.824;5.644;2023-01-30T03:42:16;101083.63;;;4.32;84.53
36248;BME280;22287;50.824;5.644;2023-01-30T03:44:57;101072.00;;;4.16;85.30
36248;BME280;22287;50.824;5.644;2023-01-30T03:47:38;101068.25;;;4.36;85.22
36248;BME280;22287;50.824;5.644;2023-01-30T03:50:06;101063.72;;;4.21;86.15
36248;BME280;22287;50.824;5.644;2023-01-30T03:52:36;101060.44;;;4.15;85.65
36248;BME280;22287;50.824;5.644;2023-01-30T03:55:08;101062.22;;;4.32;85.92
36248;BME280;22287;50.824;5.644;2023-01-30T03:57:35;101061.09;;;4.36;85.37
36248;BME280;22287;50.824;5.644;2023-01-30T04:00:03;101063.44;;;4.42;84.26
36248;BME280;22287;50.824;5.644;2023-01-30T04:02:41;101065.81;;;4.31;85.50
36248;BME280;22287;50.824;5.644;2023-01-30T04:05:10;101067.97;;;4.25;86.32
36248;BME280;22287;50.824;5.644;2023-01-30T04:07:41;101071.53;;;4.25;86.02
36248;BME280;22287;50.824;5.644;2023-01-30T04:10:09;101059.09;;;4.24;86.89
36248;BME280;22287;50.824;5.644;2023-01-30T04:12:36;101051.50;;;4.32;86.64
36248;BME280;22287;50.824;5.644;2023-01-30T04:15:04;101053.25;;;4.33;86.79
36248;BME280;22287;50.824;5.644;2023-01-30T04:17:44;101049.59;;;4.34;87.67
36248;BME280;22287;50.824;5.644;2023-01-30T04:20:28;101050.78;;;4.29;87.83
36248;BME280;22287;50.824;5.644;2023-01-30T04:22:56;101038.06;;;4.49;87.22
36248;BME280;22287;50.824;5.644;2023-01-30T04:25:24;101043.75;;;4.43;87.47
36248;BME280;22287;50.824;5.644;2023-01-30T04:27:51;101034.09;;;4.56;87.24
36248;BME280;22287;50.824;5.644;2023-01-30T04:30:26;101045.59;;;4.74;86.34
36248;BME280;22287;50.824;5.644;2023-01-30T04:33:03;101041.97;;;4.59;85.96
36248;BME280;22287;50.824;5.644;2023-01-30T04:35:29;101033.88;;;4.61;86.55
36248;BME280;22287;50.824;5.644;2023-01-30T04:37:56;101033.22;;;4.56;86.68
36248;BME280;22287;50.824;5.644;2023-01-30T04:40:23;101024.63;;;4.66;86.67
36248;BME280;22287;50.824;5.644;2023-01-30T04:42:50;101031.41;;;4.41;88.25
36248;BME280;22287;50.824;5.644;2023-01-30T04:45:35;101024.59;;;4.35;88.14
36248;BME280;22287;50.824;5.644;2023-01-30T04:48:02;101016.41;;;4.69;87.35
36248;BME280;22287;50.824;5.644;2023-01-30T04:50:28;101017.38;;;4.68;87.44
36248;BME280;22287;50.824;5.644;2023-01-30T04:52:54;101020.97;;;4.67;87.98
36248;BME280;22287;50.824;5.644;2023-01-30T04:55:21;101019.28;;;4.66;87.94
36248;BME280;22287;50.824;5.644;2023-01-30T04:57:48;101011.81;;;4.56;88.99
36248;BME280;22287;50.824;5.644;2023-01-30T05:00:15;101010.72;;;4.60;89.51
36248;BME280;22287;50.824;5.644;2023-01-30T05:02:50;101005.28;;;4.77;88.32
36248;BME280;22287;50.824;5.644;2023-01-30T05:05:17;101008.03;;;4.75;88.45
36248;BME280;22287;50.824;5.644;2023-01-30T05:07:44;100997.66;;;4.69;89.04
36248;BME280;22287;50.824;5.644;2023-01-30T05:10:11;101009.50;;;4.65;89.23
36248;BME280;22287;50.824;5.644;2023-01-30T05:12:37;100999.41;;;4.70;89.90
36248;BME280;22287;50.824;5.644;2023-01-30T05:15:05;101008.91;;;4.76;88.94
36248;BME280;22287;50.824;5.644;2023-01-30T05:17:33;101004.75;;;4.70;89.21
36248;BME280;22287;50.824;5.644;2023-01-30T05:20:00;100994.56;;;4.61;89.74
36248;BME280;22287;50.824;5.644;2023-01-30T05:22:27;101002.06;;;4.70;89.98
36248;BME280;22287;50.824;5.644;2023-01-30T05:24:54;101006.91;;;4.80;89.05
36248;BME280;22287;50.824;5.644;2023-01-30T05:27:20;101014.31;;;5.06;88.27
36248;BME280;22287;50.824;5.644;2023-01-30T05:29:47;101012.78;;;4.86;88.46
36248;BME280;22287;50.824;5.644;2023-01-30T05:32:15;101012.50;;;4.75;89.67
36248;BME280;22287;50.824;5.644;2023-01-30T05:34:43;101006.56;;;4.70;89.99
36248;BME280;22287;50.824;5.644;2023-01-30T05:37:11;101004.94;;;4.83;89.78
36248;BME280;22287;50.824;5.644;2023-01-30T05:39:38;101004.59;;;4.73;90.29
36248;BME280;22287;50.824;5.644;2023-01-30T05:42:04;101008.31;;;4.71;91.23
36248;BME280;22287;50.824;5.644;2023-01-30T05:44:31;101016.22;;;4.72;90.98
36248;BME280;22287;50.824;5.644;2023-01-30T05:46:58;101021.75;;;4.69;91.42
36248;BME280;22287;50.824;5.644;2023-01-30T05:49:25;101024.34;;;4.87;90.01
36248;BME280;22287;50.824;5.644;2023-01-30T05:51:52;101022.38;;;4.90;90.27
36248;BME280;22287;50.824;5.644;2023-01-30T05:54:18;101019.59;;;5.07;89.03
36248;BME280;22287;50.824;5.644;2023-01-30T05:56:49;101026.94;;;5.04;89.58
36248;BME280;22287;50.824;5.644;2023-01-30T05:59:16;101011.81;;;5.03;90.19
36248;BME280;22287;50.824;5.644;2023-01-30T06:01:46;101008.94;;;5.06;89.88
36248;BME280;22287;50.824;5.644;2023-01-30T06:04:13;101015.69;;;4.97;90.56
36248;BME280;22287;50.824;5.644;2023-01-30T06:06:40;101019.59;;;5.07;90.07
36248;BME280;22287;50.824;5.644;2023-01-30T06:09:09;101015.53;;;5.16;90.26
36248;BME280;22287;50.824;5.644;2023-01-30T06:11:36;101012.81;;;5.31;88.99
36248;BME280;22287;50.824;5.644;2023-01-30T06:14:03;101004.63;;;5.19;90.36
36248;BME280;22287;50.824;5.644;2023-01-30T06:16:29;100993.63;;;5.23;89.55
36248;BME280;22287;50.824;5.644;2023-01-30T06:18:56;100998.25;;;5.06;90.34
36248;BME280;22287;50.824;5.644;2023-01-30T06:21:23;101005.41;;;5.21;90.17
36248;BME280;22287;50.824;5.644;2023-01-30T06:23:50;101007.78;;;5.25;89.07
36248;BME280;22287;50.824;5.644;2023-01-30T06:26:17;101001.97;;;5.33;89.17
36248;BME280;22287;50.824;5.644;2023-01-30T06:28:44;101018.69;;;5.22;89.91
36248;BME280;22287;50.824;5.644;2023-01-30T06:31:11;101040.81;;;5.26;89.96
36248;BME280;22287;50.824;5.644;2023-01-30T06:33:38;101047.19;;;5.39;88.93
36248;BME280;22287;50.824;5.644;2023-01-30T06:36:05;101035.69;;;5.67;87.80
36248;BME280;22287;50.824;5.644;2023-01-30T06:38:32;101041.34;;;5.32;89.23
36248;BME280;22287;50.824;5.644;2023-01-30T06:40:58;101039.31;;;5.36;89.75
36248;BME280;22287;50.824;5.644;2023-01-30T06:43:25;101035.09;;;5.32;89.74
36248;BME280;22287;50.824;5.644;2023-01-30T06:45:52;101031.91;;;5.41;89.38
36248;BME280;22287;50.824;5.644;2023-01-30T06:48:19;101040.69;;;5.43;89.70
36248;BME280;22287;50.824;5.644;2023-01-30T06:50:46;101028.59;;;5.52;88.58
36248;BME280;22287;50.824;5.644;2023-01-30T06:53:13;101046.53;;;5.36;89.03
36248;BME280;22287;50.824;5.644;2023-01-30T06:55:40;101055.31;;;5.38;90.56
36248;BME280;22287;50.824;5.644;2023-01-30T06:58:09;101054.56;;;5.65;89.41
36248;BME280;22287;50.824;5.644;2023-01-30T07:00:36;101056.97;;;5.70;88.58
36248;BME280;22287;50.824;5.644;2023-01-30T07:03:19;101067.69;;;5.70;88.18
36248;BME280;22287;50.824;5.644;2023-01-30T07:05:48;101066.16;;;5.96;87.07
36248;BME280;22287;50.824;5.644;2023-01-30T07:08:15;101059.53;;;5.87;87.42
36248;BME280;22287;50.824;5.644;2023-01-30T07:10:44;101059.81;;;5.67;88.49
36248;BME280;22287;50.824;5.644;2023-01-30T07:13:11;101061.06;;;5.91;87.59
36248;BME280;22287;50.824;5.644;2023-01-30T07:15:38;101061.09;;;6.05;87.65
36248;BME280;22287;50.824;5.644;2023-01-30T07:18:05;101062.53;;;6.11;87.56
36248;BME280;22287;50.824;5.644;2023-01-30T07:20:32;101060.41;;;5.87;88.42
36248;BME280;22287;50.824;5.644;2023-01-30T07:22:59;101066.19;;;5.80;88.40
36248;BME280;22287;50.824;5.644;2023-01-30T07:25:27;101074.56;;;5.89;88.73
36248;BME280;22287;50.824;5.644;2023-01-30T07:27:57;101071.91;;;5.89;88.84
36248;BME280;22287;50.824;5.644;2023-01-30T07:30:25;101068.03;;;6.37;87.68
36248;BME280;22287;50.824;5.644;2023-01-30T07:32:54;101072.94;;;6.45;86.99
36248;BME280;22287;50.824;5.644;2023-01-30T07:35:25;101067.91;;;6.95;84.43
36248;BME280;22287;50.824;5.644;2023-01-30T07:37:52;101067.00;;;6.54;85.45
36248;BME280;22287;50.824;5.644;2023-01-30T07:40:20;101071.38;;;6.69;86.49
36248;BME280;22287;50.824;5.644;2023-01-30T07:43:00;101081.84;;;6.31;87.35
36248;BME280;22287;50.824;5.644;2023-01-30T07:45:30;101074.84;;;6.43;86.84
36248;BME280;22287;50.824;5.644;2023-01-30T07:48:02;101072.44;;;6.53;87.17
36248;BME280;22287;50.824;5.644;2023-01-30T07:50:29;101072.72;;;6.76;85.38
36248;BME280;22287;50.824;5.644;2023-01-30T07:52:56;101074.69;;;7.01;83.12
36248;BME280;22287;50.824;5.644;2023-01-30T07:55:23;101090.56;;;6.77;84.67
36248;BME280;22287;50.824;5.644;2023-01-30T07:57:50;101083.38;;;6.64;84.51
36248;BME280;22287;50.824;5.644;2023-01-30T08:00:17;101087.06;;;7.03;83.36
36248;BME280;22287;50.824;5.644;2023-01-30T08:02:44;101090.09;;;6.71;85.01
36248;BME280;22287;50.824;5.644;2023-01-30T08:05:11;101084.03;;;6.95;83.92
36248;BME280;22287;50.824;5.644;2023-01-30T08:07:38;101081.56;;;6.50;85.71
36248;BME280;22287;50.824;5.644;2023-01-30T08:10:05;101075.78;;;6.84;84.26
36248;BME280;22287;50.824;5.644;2023-01-30T08:12:32;101083.66;;;6.45;86.18
36248;BME280;22287;50.824;5.644;2023-01-30T08:14:59;101097.28;;;6.56;85.14
36248;BME280;22287;50.824;5.644;2023-01-30T08:17:26;101099.59;;;6.62;84.29
36248;BME280;22287;50.824;5.644;2023-01-30T08:19:52;101109.66;;;6.44;85.13
36248;BME280;22287;50.824;5.644;2023-01-30T08:22:19;101106.78;;;6.62;83.75
36248;BME280;22287;50.824;5.644;2023-01-30T08:24:47;101107.09;;;6.57;83.76
36248;BME280;22287;50.824;5.644;2023-01-30T08:27:14;101111.16;;;6.77;82.91
36248;BME280;22287;50.824;5.644;2023-01-30T08:29:41;101092.28;;;6.50;82.87
36248;BME280;22287;50.824;5.644;2023-01-30T08:32:07;101110.91;;;6.81;82.02
36248;BME280;22287;50.824;5.644;2023-01-30T08:34:34;101109.84;;;6.70;81.36
36248;BME280;22287;50.824;5.644;2023-01-30T08:37:01;101093.81;;;6.82;82.14
36248;BME280;22287;50.824;5.644;2023-01-30T08:39:28;101110.34;;;6.76;82.30
36248;BME280;22287;50.824;5.644;2023-01-30T08:41:55;101117.59;;;6.74;81.65
36248;BME280;22287;50.824;5.644;2023-01-30T08:44:22;101132.56;;;6.64;80.59
36248;BME280;22287;50.824;5.644;2023-01-30T08:46:49;101127.03;;;6.67;83.39
36248;BME280;22287;50.824;5.644;2023-01-30T08:49:16;101141.69;;;6.76;82.29
36248;BME280;22287;50.824;5.644;2023-01-30T08:51:42;101146.50;;;6.57;81.72
36248;BME280;22287;50.824;5.644;2023-01-30T08:54:10;101146.75;;;6.66;82.21
36248;BME280;22287;50.824;5.644;2023-01-30T08:56:37;101149.63;;;7.05;80.47
36248;BME280;22287;50.824;5.644;2023-01-30T08:59:04;101137.16;;;7.04;80.54
36248;BME280;22287;50.824;5.644;2023-01-30T09:01:31;101138.25;;;7.43;79.39
36248;BME280;22287;50.824;5.644;2023-01-30T09:03:58;101134.78;;;7.41;78.61
36248;BME280;22287;50.824;5.644;2023-01-30T09:06:25;101127.69;;;7.40;78.12
36248;BME280;22287;50.824;5.644;2023-01-30T09:08:52;101136.66;;;7.26;79.42
36248;BME280;22287;50.824;5.644;2023-01-30T09:11:19;101130.47;;;7.38;78.70
36248;BME280;22287;50.824;5.644;2023-01-30T09:13:46;101123.03;;;7.56;77.38
36248;BME280;22287;50.824;5.644;2023-01-30T09:16:15;101136.94;;;7.22;79.61
36248;BME280;22287;50.824;5.644;2023-01-30T09:18:56;101136.97;;;7.48;77.61
36248;BME280;22287;50.824;5.644;2023-01-30T09:21:23;101137.63;;;7.52;78.26
36248;BME280;22287;50.824;5.644;2023-01-30T09:23:49;101145.44;;;7.42;78.69
36248;BME280;22287;50.824;5.644;2023-01-30T09:26:16;101155.22;;;7.43;78.80
36248;BME280;22287;50.824;5.644;2023-01-30T09:28:43;101149.03;;;7.29;80.03
36248;BME280;22287;50.824;5.644;2023-01-30T09:31:10;101157.34;;;7.38;79.25
36248;BME280;22287;50.824;5.644;2023-01-30T09:33:36;101156.97;;;7.71;78.26
36248;BME280;22287;50.824;5.644;2023-01-30T09:36:04;101158.50;;;7.75;78.16
36248;BME280;22287;50.824;5.644;2023-01-30T09:38:31;101151.81;;;8.07;76.94
36248;BME280;22287;50.824;5.644;2023-01-30T09:44:01;101154.06;;;7.74;78.86
36248;BME280;22287;50.824;5.644;2023-01-30T09:46:29;101158.59;;;7.74;78.24
36248;BME280;22287;50.824;5.644;2023-01-30T09:49:07;101172.66;;;7.91;77.28
36248;BME280;22287;50.824;5.644;2023-01-30T09:54:21;101175.94;;;8.09;78.10
36248;BME280;22287;50.824;5.644;2023-01-30T09:57:22;101189.28;;;8.10;77.85
36248;BME280;22287;50.824;5.644;2023-01-30T09:59:53;101182.06;;;8.38;77.48
36248;BME280;22287;50.824;5.644;2023-01-30T10:02:30;101186.06;;;8.18;77.80
36248;BME280;22287;50.824;5.644;2023-01-30T10:04:59;101191.00;;;8.51;76.09
36248;BME280;22287;50.824;5.644;2023-01-30T10:10:41;101201.00;;;7.97;76.54
36248;BME280;22287;50.824;5.644;2023-01-30T10:19:31;101187.91;;;7.78;76.72
36248;BME280;22287;50.824;5.644;2023-01-30T10:27:48;101201.78;;;8.51;74.91
36248;BME280;22287;50.824;5.644;2023-01-30T10:30:16;101200.69;;;8.28;73.25
36248;BME280;22287;50.824;5.644;2023-01-30T10:32:57;101198.06;;;8.53;74.48
36248;BME280;22287;50.824;5.644;2023-01-30T10:35:38;101207.91;;;8.27;74.22
36248;BME280;22287;50.824;5.644;2023-01-30T10:44:11;101220.31;;;8.16;72.90
36248;BME280;22287;50.824;5.644;2023-01-30T10:49:58;101221.28;;;7.88;74.44
36248;BME280;22287;50.824;5.644;2023-01-30T10:52:37;101219.31;;;8.04;72.95
36248;BME280;22287;50.824;5.644;2023-01-30T11:03:21;101218.94;;;7.43;72.67
36248;BME280;22287;50.824;5.644;2023-01-30T11:05:58;101213.41;;;7.58;72.07
36248;BME280;22287;50.824;5.644;2023-01-30T11:08:31;101219.56;;;7.87;71.31
36248;BME280;22287;50.824;5.644;2023-01-30T11:11:22;101221.53;;;7.71;72.16
36248;BME280;22287;50.824;5.644;2023-01-30T11:14:06;101215.72;;;7.91;70.32
36248;BME280;22287;50.824;5.644;2023-01-30T11:17:00;101219.63;;;8.00;69.38
36248;BME280;22287;50.824;5.644;2023-01-30T11:19:36;101219.63;;;8.00;69.61
36248;BME280;22287;50.824;5.644;2023-01-30T11:22:04;101209.63;;;7.75;70.77
36248;BME280;22287;50.824;5.644;2023-01-30T11:24:43;101210.13;;;7.94;69.79
36248;BME280;22287;50.824;5.644;2023-01-30T11:27:24;101207.28;;;7.83;69.95
36248;BME280;22287;50.824;5.644;2023-01-30T11:30:14;101209.16;;;8.22;68.97
36248;BME280;22287;50.824;5.644;2023-01-30T11:32:44;101206.34;;;8.23;68.99
36248;BME280;22287;50.824;5.644;2023-01-30T11:38:20;101208.78;;;7.87;70.07
36248;BME280;22287;50.824;5.644;2023-01-30T11:40:48;101206.09;;;7.87;69.51
36248;BME280;22287;50.824;5.644;2023-01-30T11:43:33;101203.47;;;8.00;69.26
36248;BME280;22287;50.824;5.644;2023-01-30T11:46:19;101208.19;;;7.69;70.56
36248;BME280;22287;50.824;5.644;2023-01-30T11:49:03;101213.25;;;7.74;69.84
36248;BME280;22287;50.824;5.644;2023-01-30T11:51:52;101216.91;;;7.32;71.21
36248;BME280;22287;50.824;5.644;2023-01-30T11:54:35;101219.22;;;7.65;69.40
36248;BME280;22287;50.824;5.644;2023-01-30T11:57:08;101215.75;;;7.22;70.99
36248;BME280;22287;50.824;5.644;2023-01-30T12:02:15;101212.78;;;8.08;68.21
36248;BME280;22287;50.824;5.644;2023-01-30T12:04:46;101216.50;;;7.79;69.17
36248;BME280;22287;50.824;5.644;2023-01-30T12:09:47;101229.16;;;7.64;69.35
36248;BME280;22287;50.824;5.644;2023-01-30T12:12:26;101229.53;;;7.99;68.42
36248;BME280;22287;50.824;5.644;2023-01-30T12:17:40;101224.38;;;7.82;69.50
36248;BME280;22287;50.824;5.644;2023-01-30T12:20:22;101219.56;;;7.46;69.47
36248;BME280;22287;50.824;5.644;2023-01-30T12:28:34;101226.84;;;7.73;68.69
36248;BME280;22287;50.824;5.644;2023-01-30T12:33:34;101224.31;;;7.43;69.74
36248;BME280;22287;50.824;5.644;2023-01-30T12:51:04;101231.88;;;7.50;69.79
36248;BME280;22287;50.824;5.644;2023-01-30T13:04:58;101227.09;;;7.68;68.19
36248;BME280;22287;50.824;5.644;2023-01-30T13:12:48;101235.72;;;7.46;68.72
36248;BME280;22287;50.824;5.644;2023-01-30T13:15:23;101236.00;;;6.99;70.66
36248;BME280;22287;50.824;5.644;2023-01-30T13:21:14;101243.50;;;7.23;69.95
36248;BME280;22287;50.824;5.644;2023-01-30T13:26:40;101247.94;;;7.09;69.00
36248;BME280;22287;50.824;5.644;2023-01-30T13:29:28;101244.75;;;7.45;68.46
36248;BME280;22287;50.824;5.644;2023-01-30T13:31:58;101242.47;;;7.25;68.41
36248;BME280;22287;50.824;5.644;2023-01-30T13:34:38;101240.44;;;7.43;68.24
36248;BME280;22287;50.824;5.644;2023-01-30T13:37:12;101247.72;;;7.41;68.83
36248;BME280;22287;50.824;5.644;2023-01-30T13:44:56;101269.03;;;7.44;68.19
36248;BME280;22287;50.824;5.644;2023-01-30T13:50:48;101269.50;;;6.94;69.96
36248;BME280;22287;50.824;5.644;2023-01-30T14:09:49;101299.47;;;7.73;67.14
36248;BME280;22287;50.824;5.644;2023-01-30T14:12:24;101306.69;;;7.44;67.16
36248;BME280;22287;50.824;5.644;2023-01-30T14:18:04;101316.88;;;7.25;68.97
36248;BME280;22287;50.824;5.644;2023-01-30T14:20:35;101318.81;;;7.37;67.70
36248;BME280;22287;50.824;5.644;2023-01-30T14:23:18;101340.28;;;7.65;66.06
36248;BME280;22287;50.824;5.644;2023-01-30T14:25:49;101333.44;;;8.02;65.71
36248;BME280;22287;50.824;5.644;2023-01-30T14:30:52;101339.16;;;7.55;65.90
36248;BME280;22287;50.824;5.644;2023-01-30T14:38:21;101335.31;;;7.31;66.62
36248;BME280;22287;50.824;5.644;2023-01-30T14:45:55;101350.63;;;7.00;68.47
36248;BME280;22287;50.824;5.644;2023-01-30T14:48:37;101359.25;;;7.05;67.23
36248;BME280;22287;50.824;5.644;2023-01-30T15:04:31;101393.38;;;6.89;67.39
36248;BME280;22287;50.824;5.644;2023-01-30T15:07:03;101400.91;;;6.98;66.93
36248;BME280;22287;50.824;5.644;2023-01-30T15:09:31;101408.00;;;6.99;66.83
36248;BME280;22287;50.824;5.644;2023-01-30T15:15:00;101415.94;;;7.17;66.41
36248;BME280;22287;50.824;5.644;2023-01-30T15:17:56;101416.28;;;7.10;67.92
36248;BME280;22287;50.824;5.644;2023-01-30T15:32:24;101446.22;;;7.04;68.47
36248;BME280;22287;50.824;5.644;2023-01-30T15:34:59;101442.44;;;7.23;66.84
36248;BME280;22287;50.824;5.644;2023-01-30T15:51:24;101467.75;;;7.48;66.44
36248;BME280;22287;50.824;5.644;2023-01-30T15:54:13;101476.81;;;7.47;67.47
36248;BME280;22287;50.824;5.644;2023-01-30T15:56:57;101475.22;;;7.73;65.89
36248;BME280;22287;50.824;5.644;2023-01-30T15:59:36;101471.84;;;7.69;65.95
36248;BME280;22287;50.824;5.644;2023-01-30T16:02:12;101482.13;;;7.33;66.21
36248;BME280;22287;50.824;5.644;2023-01-30T16:04:40;101482.38;;;7.15;67.53
36248;BME280;22287;50.824;5.644;2023-01-30T16:07:19;101489.47;;;7.16;67.03
36248;BME280;22287;50.824;5.644;2023-01-30T16:09:56;101495.38;;;7.66;64.69
36248;BME280;22287;50.824;5.644;2023-01-30T16:12:25;101494.28;;;7.54;65.26
36248;BME280;22287;50.824;5.644;2023-01-30T16:21:17;101513.44;;;6.58;68.03
36248;BME280;22287;50.824;5.644;2023-01-30T16:26:19;101514.06;;;6.78;67.00
36248;BME280;22287;50.824;5.644;2023-01-30T16:28:50;101518.97;;;7.01;65.79
36248;BME280;22287;50.824;5.644;2023-01-30T16:31:24;101531.59;;;7.31;65.74
36248;BME280;22287;50.824;5.644;2023-01-30T16:33:52;101527.53;;;7.53;64.71
36248;BME280;22287;50.824;5.644;2023-01-30T16:38:51;101535.59;;;7.83;64.02
36248;BME280;22287;50.824;5.644;2023-01-30T16:44:27;101535.94;;;7.77;64.52
36248;BME280;22287;50.824;5.644;2023-01-30T16:46:55;101538.38;;;7.52;64.72
36248;BME280;22287;50.824;5.644;2023-01-30T16:52:26;101553.16;;;7.75;64.20
36248;BME280;22287;50.824;5.644;2023-01-30T16:55:20;101547.78;;;7.75;64.27
36248;BME280;22287;50.824;5.644;2023-01-30T16:58:00;101552.75;;;7.66;64.93
36248;BME280;22287;50.824;5.644;2023-01-30T17:00:38;101559.34;;;7.61;64.91
36248;BME280;22287;50.824;5.644;2023-01-30T17:03:18;101565.03;;;7.56;64.90
36248;BME280;22287;50.824;5.644;2023-01-30T17:05:46;101567.34;;;7.17;66.18
36248;BME280;22287;50.824;5.644;2023-01-30T17:11:03;101578.97;;;7.18;66.01
36248;BME280;22287;50.824;5.644;2023-01-30T17:13:35;101595.88;;;7.04;66.48